createdAt,value
2023-02-02T00:00:23.182Z,85.34
2023-02-02T00:01:23.175Z,85.75
2023-02-02T00:02:23.205Z,85.44
2023-02-02T00:03:23.141Z,85.19
2023-02-02T00:04:23.135Z,84.92
2023-02-02T00:05:23.362Z,85.34
2023-02-02T00:06:23.111Z,85.44
2023-02-02T00:07:23.102Z,85.34
2023-02-02T00:08:23.099Z,85.34
2023-02-02T00:09:23.100Z,85.40
2023-02-02T00:10:23.085Z,85.30
2023-02-02T00:11:23.063Z,84.88
2023-02-02T00:12:24.579Z,85.09
2023-02-02T00:13:23.055Z,85.30
2023-02-02T00:14:23.051Z,84.99
2023-02-02T00:15:23.411Z,85.44
2023-02-02T00:16:23.062Z,85.65
2023-02-02T00:17:23.027Z,85.34
2023-02-02T00:18:23.010Z,85.55
2023-02-02T00:19:23.033Z,85.55
2023-02-02T00:20:23.007Z,85.44
2023-02-02T00:21:23.006Z,85.75
2023-02-02T00:22:22.975Z,85.24
2023-02-02T00:23:22.971Z,85.44
2023-02-02T00:24:22.972Z,85.44
2023-02-02T00:25:23.351Z,85.03
2023-02-02T00:26:22.965Z,84.82
2023-02-02T00:27:22.935Z,84.41
2023-02-02T00:28:22.926Z,85.13
2023-02-02T00:29:22.915Z,85.24
2023-02-02T00:30:23.038Z,84.82
2023-02-02T00:31:22.914Z,84.92
2023-02-02T00:32:22.889Z,85.03
2023-02-02T00:33:22.878Z,85.34
2023-02-02T00:34:22.875Z,85.44
2023-02-02T00:35:23.217Z,84.92
2023-02-02T00:36:22.865Z,84.82
2023-02-02T00:37:22.851Z,84.72
2023-02-02T00:38:22.834Z,84.20
2023-02-02T00:39:22.828Z,84.51
2023-02-02T00:40:22.832Z,83.89
2023-02-02T00:41:22.813Z,85.03
2023-02-02T00:42:22.803Z,85.34
2023-02-02T00:43:22.795Z,85.48
2023-02-02T00:44:22.785Z,84.72
2023-02-02T00:45:23.195Z,84.86
2023-02-02T00:46:22.762Z,85.06
2023-02-02T00:47:22.750Z,84.96
2023-02-02T00:48:22.744Z,84.96
2023-02-02T00:49:22.741Z,85.06
2023-02-02T00:50:22.738Z,84.96
2023-02-02T00:51:22.718Z,84.30
2023-02-02T00:52:22.710Z,84.92
2023-02-02T00:53:22.702Z,84.96
2023-02-02T00:54:22.702Z,84.75
2023-02-02T00:55:23.220Z,85.17
2023-02-02T00:56:22.673Z,84.86
2023-02-02T00:57:22.669Z,84.65
2023-02-02T00:58:22.667Z,84.55
2023-02-02T00:59:22.652Z,84.03
2023-02-02T01:00:22.643Z,84.55
2023-02-02T01:01:22.648Z,84.03
2023-02-02T01:02:22.627Z,84.34
2023-02-02T01:03:22.601Z,84.44
2023-02-02T01:04:23.598Z,84.03
2023-02-02T01:05:22.999Z,84.03
2023-02-02T01:06:22.588Z,83.47
2023-02-02T01:07:22.572Z,83.93
2023-02-02T01:08:22.566Z,84.65
2023-02-02T01:09:22.557Z,83.93
2023-02-02T01:10:22.544Z,84.44
2023-02-02T01:11:23.559Z,84.55
2023-02-02T01:12:22.529Z,84.75
2023-02-02T01:13:22.519Z,84.44
2023-02-02T01:14:22.509Z,84.34
2023-02-02T01:15:22.876Z,84.55
2023-02-02T01:16:22.722Z,84.23
2023-02-02T01:17:22.492Z,84.13
2023-02-02T01:18:22.475Z,84.86
2023-02-02T01:19:22.472Z,85.06
2023-02-02T01:20:22.478Z,85.06
2023-02-02T01:21:22.457Z,85.06
2023-02-02T01:22:22.446Z,84.96
2023-02-02T01:23:22.436Z,85.27
2023-02-02T01:24:22.438Z,84.86
2023-02-02T01:25:22.637Z,84.96
2023-02-02T01:26:22.435Z,84.86
2023-02-02T01:27:22.408Z,85.38
2023-02-02T01:28:22.402Z,85.31
2023-02-02T01:29:22.392Z,84.75
2023-02-02T01:30:22.403Z,84.69
2023-02-02T01:31:22.396Z,85.11
2023-02-02T01:32:22.368Z,85.06
2023-02-02T01:33:22.356Z,85.17
2023-02-02T01:34:22.357Z,85.06
2023-02-02T01:35:22.846Z,85.42
2023-02-02T01:36:22.334Z,85.00
2023-02-02T01:37:22.317Z,84.80
2023-02-02T01:38:22.321Z,85.00
2023-02-02T01:39:22.303Z,84.80
2023-02-02T01:40:22.333Z,84.69
2023-02-02T01:41:22.287Z,84.59
2023-02-02T01:42:22.284Z,84.03
2023-02-02T01:43:22.289Z,84.90
2023-02-02T01:44:22.263Z,84.48
2023-02-02T01:45:22.645Z,85.11
2023-02-02T01:46:22.245Z,84.90
2023-02-02T01:47:22.237Z,85.00
2023-02-02T01:48:22.229Z,85.31
2023-02-02T01:49:22.219Z,85.00
2023-02-02T01:50:22.223Z,84.80
2023-02-02T01:51:22.202Z,84.13
2023-02-02T01:52:22.192Z,84.55
2023-02-02T01:53:22.187Z,84.44
2023-02-02T01:54:22.171Z,84.48
2023-02-02T01:55:22.366Z,84.03
2023-02-02T01:56:22.159Z,84.07
2023-02-02T01:57:22.151Z,84.23
2023-02-02T01:58:22.141Z,83.86
2023-02-02T01:59:22.142Z,83.93
2023-02-02T02:00:22.134Z,84.23
2023-02-02T02:01:22.171Z,84.17
2023-02-02T02:02:22.128Z,84.38
2023-02-02T02:03:22.093Z,84.03
2023-02-02T02:04:23.088Z,84.59
2023-02-02T02:05:22.176Z,83.86
2023-02-02T02:06:22.102Z,84.03
2023-02-02T02:07:22.063Z,84.34
2023-02-02T02:08:22.066Z,85.11
2023-02-02T02:09:22.047Z,84.96
2023-02-02T02:10:22.046Z,85.11
2023-02-02T02:11:22.040Z,84.75
2023-02-02T02:12:22.019Z,85.00
2023-02-02T02:13:22.008Z,85.52
2023-02-02T02:14:21.997Z,85.58
2023-02-02T02:15:22.467Z,85.42
2023-02-02T02:16:22.025Z,85.83
2023-02-02T02:17:21.983Z,85.83
2023-02-02T02:18:21.966Z,85.73
2023-02-02T02:19:21.960Z,85.52
2023-02-02T02:20:21.963Z,85.73
2023-02-02T02:21:21.943Z,86.25
2023-02-02T02:22:21.934Z,86.76
2023-02-02T02:23:21.927Z,86.45
2023-02-02T02:24:21.917Z,86.55
2023-02-02T02:25:22.513Z,86.15
2023-02-02T02:26:21.945Z,86.08
2023-02-02T02:27:21.888Z,86.45
2023-02-02T02:28:21.877Z,86.35
2023-02-02T02:29:21.882Z,86.97
2023-02-02T02:30:21.884Z,86.76
2023-02-02T02:31:21.920Z,86.66
2023-02-02T02:32:21.845Z,86.97
2023-02-02T02:33:21.835Z,87.38
2023-02-02T02:34:21.843Z,87.18
2023-02-02T02:35:22.202Z,86.87
2023-02-02T02:36:21.811Z,87.28
2023-02-02T02:37:21.800Z,87.38
2023-02-02T02:38:21.792Z,87.28
2023-02-02T02:39:21.782Z,87.80
2023-02-02T02:40:21.767Z,87.49
2023-02-02T02:41:21.783Z,87.38
2023-02-02T02:42:21.759Z,87.70
2023-02-02T02:43:21.748Z,87.49
2023-02-02T02:44:21.737Z,87.18
2023-02-02T02:45:21.767Z,87.45
2023-02-02T02:46:21.781Z,87.14
2023-02-02T02:47:21.716Z,87.80
2023-02-02T02:48:21.710Z,87.49
2023-02-02T02:49:21.724Z,87.38
2023-02-02T02:50:21.703Z,87.45
2023-02-02T02:51:21.691Z,87.07
2023-02-02T02:52:21.669Z,87.66
2023-02-02T02:53:21.672Z,87.87
2023-02-02T02:54:21.658Z,87.59
2023-02-02T02:55:22.038Z,87.38
2023-02-02T02:56:21.656Z,87.28
2023-02-02T02:57:21.622Z,87.49
2023-02-02T02:58:21.619Z,87.38
2023-02-02T02:59:21.610Z,87.55
2023-02-02T03:00:21.630Z,87.18
2023-02-02T03:01:21.656Z,87.14
2023-02-02T03:02:21.593Z,87.90
2023-02-02T03:03:21.576Z,87.87
2023-02-02T03:04:21.565Z,87.38
2023-02-02T03:05:21.746Z,87.35
2023-02-02T03:06:21.562Z,87.18
2023-02-02T03:07:21.546Z,87.28
2023-02-02T03:08:21.535Z,87.07
2023-02-02T03:09:21.536Z,87.70
2023-02-02T03:10:21.520Z,87.18
2023-02-02T03:11:21.523Z,87.80
2023-02-02T03:12:21.503Z,87.22
2023-02-02T03:13:21.492Z,87.28
2023-02-02T03:14:21.484Z,87.28
2023-02-02T03:15:21.474Z,86.76
2023-02-02T03:16:21.493Z,86.87
2023-02-02T03:17:21.462Z,86.55
2023-02-02T03:18:21.452Z,86.66
2023-02-02T03:19:21.443Z,86.35
2023-02-02T03:20:21.438Z,86.35
2023-02-02T03:21:21.437Z,86.04
2023-02-02T03:22:21.444Z,86.45
2023-02-02T03:23:21.415Z,86.25
2023-02-02T03:24:21.401Z,86.15
2023-02-02T03:25:21.402Z,86.25
2023-02-02T03:26:21.417Z,86.04
2023-02-02T03:27:21.373Z,86.52
2023-02-02T03:28:21.359Z,86.41
2023-02-02T03:29:21.356Z,86.10
2023-02-02T03:30:21.369Z,86.35
2023-02-02T03:31:21.442Z,86.10
2023-02-02T03:32:21.328Z,86.41
2023-02-02T03:33:21.320Z,86.72
2023-02-02T03:34:21.322Z,86.93
2023-02-02T03:35:21.311Z,86.83
2023-02-02T03:36:21.313Z,86.62
2023-02-02T03:37:21.311Z,87.04
2023-02-02T03:38:21.274Z,87.35
2023-02-02T03:39:21.269Z,87.14
2023-02-02T03:40:21.261Z,87.04
2023-02-02T03:41:21.272Z,87.66
2023-02-02T03:42:21.241Z,87.55
2023-02-02T03:43:21.249Z,87.24
2023-02-02T03:44:21.221Z,87.35
2023-02-02T03:45:21.214Z,87.35
2023-02-02T03:46:21.253Z,87.55
2023-02-02T03:47:21.197Z,87.55
2023-02-02T03:48:21.192Z,87.24
2023-02-02T03:49:21.196Z,87.24
2023-02-02T03:50:21.176Z,87.04
2023-02-02T03:51:21.177Z,87.35
2023-02-02T03:52:21.160Z,87.14
2023-02-02T03:53:21.146Z,87.35
2023-02-02T03:54:21.144Z,87.24
2023-02-02T03:55:21.148Z,87.76
2023-02-02T03:56:22.137Z,87.45
2023-02-02T03:57:21.113Z,87.04
2023-02-02T03:58:21.104Z,87.24
2023-02-02T03:59:21.101Z,87.35
2023-02-02T04:00:21.090Z,87.45
2023-02-02T04:01:21.134Z,87.97
2023-02-02T04:02:21.077Z,87.24
2023-02-02T04:03:21.067Z,87.24
2023-02-02T04:04:21.063Z,87.24
2023-02-02T04:05:21.052Z,87.14
2023-02-02T04:06:21.053Z,87.45
2023-02-02T04:07:21.038Z,87.76
2023-02-02T04:08:21.029Z,87.35
2023-02-02T04:09:21.018Z,86.47
2023-02-02T04:10:21.003Z,86.47
2023-02-02T04:11:21.013Z,87.10
2023-02-02T04:12:20.987Z,86.37
2023-02-02T04:13:20.985Z,86.47
2023-02-02T04:14:20.975Z,86.58
2023-02-02T04:15:20.964Z,86.27
2023-02-02T04:16:21.030Z,86.37
2023-02-02T04:17:20.947Z,86.47
2023-02-02T04:18:20.935Z,86.47
2023-02-02T04:19:20.927Z,86.07
2023-02-02T04:20:20.921Z,85.96
2023-02-02T04:21:20.921Z,86.17
2023-02-02T04:22:20.907Z,86.07
2023-02-02T04:23:20.893Z,85.96
2023-02-02T04:24:20.881Z,86.07
2023-02-02T04:25:20.869Z,86.17
2023-02-02T04:26:20.914Z,86.27
2023-02-02T04:27:20.869Z,85.86
2023-02-02T04:28:20.859Z,86.27
2023-02-02T04:29:20.839Z,85.65
2023-02-02T04:30:20.839Z,86.17
2023-02-02T04:31:20.882Z,86.17
2023-02-02T04:32:20.818Z,85.86
2023-02-02T04:33:20.811Z,86.33
2023-02-02T04:34:20.815Z,86.47
2023-02-02T04:35:20.791Z,86.54
2023-02-02T04:36:20.793Z,86.47
2023-02-02T04:37:20.769Z,85.86
2023-02-02T04:38:20.775Z,85.96
2023-02-02T04:39:20.753Z,86.54
2023-02-02T04:40:20.742Z,86.47
2023-02-02T04:41:20.805Z,87.30
2023-02-02T04:42:20.735Z,87.51
2023-02-02T04:43:20.733Z,86.99
2023-02-02T04:44:20.721Z,87.51
2023-02-02T04:45:20.705Z,86.99
2023-02-02T04:46:20.711Z,87.62
2023-02-02T04:47:20.689Z,87.30
2023-02-02T04:48:20.682Z,87.57
2023-02-02T04:49:20.669Z,87.30
2023-02-02T04:50:20.665Z,88.65
2023-02-02T04:51:20.663Z,88.76
2023-02-02T04:52:20.650Z,88.86
2023-02-02T04:53:20.630Z,88.96
2023-02-02T04:54:20.631Z,88.55
2023-02-02T04:55:20.612Z,89.17
2023-02-02T04:56:20.615Z,89.28
2023-02-02T04:57:20.597Z,89.38
2023-02-02T04:58:20.587Z,89.07
2023-02-02T04:59:20.576Z,89.17
2023-02-02T05:00:20.605Z,89.94
2023-02-02T05:01:20.583Z,89.38
2023-02-02T05:02:20.550Z,89.48
2023-02-02T05:03:20.542Z,89.73
2023-02-02T05:04:20.568Z,90.14
2023-02-02T05:05:20.544Z,90.14
2023-02-02T05:06:20.530Z,91.28
2023-02-02T05:07:20.510Z,91.28
2023-02-02T05:08:20.496Z,90.87
2023-02-02T05:09:20.490Z,91.70
2023-02-02T05:10:20.503Z,91.49
2023-02-02T05:11:20.491Z,91.91
2023-02-02T05:12:20.465Z,91.64
2023-02-02T05:13:20.459Z,92.01
2023-02-02T05:14:20.443Z,92.26
2023-02-02T05:15:20.445Z,92.63
2023-02-02T05:16:20.452Z,92.26
2023-02-02T05:17:20.424Z,92.68
2023-02-02T05:18:20.414Z,93.15
2023-02-02T05:19:20.415Z,93.71
2023-02-02T05:20:20.397Z,93.29
2023-02-02T05:21:20.407Z,93.40
2023-02-02T05:22:20.387Z,93.60
2023-02-02T05:23:20.384Z,93.19
2023-02-02T05:24:20.375Z,92.98
2023-02-02T05:25:20.366Z,93.40
2023-02-02T05:26:20.392Z,93.71
2023-02-02T05:27:20.338Z,94.33
2023-02-02T05:28:20.341Z,94.23
2023-02-02T05:29:20.356Z,94.33
2023-02-02T05:30:20.320Z,94.23
2023-02-02T05:31:20.424Z,94.02
2023-02-02T05:32:20.297Z,94.54
2023-02-02T05:33:20.289Z,93.91
2023-02-02T05:34:20.300Z,94.74
2023-02-02T05:35:20.270Z,94.06
2023-02-02T05:36:20.271Z,94.12
2023-02-02T05:37:20.250Z,94.54
2023-02-02T05:38:20.250Z,94.33
2023-02-02T05:39:20.234Z,94.12
2023-02-02T05:40:20.231Z,94.23
2023-02-02T05:41:20.228Z,94.02
2023-02-02T05:42:21.223Z,94.12
2023-02-02T05:43:21.577Z,94.43
2023-02-02T05:44:21.201Z,94.37
2023-02-02T05:45:20.187Z,94.68
2023-02-02T05:46:20.251Z,93.75
2023-02-02T05:47:20.173Z,94.27
2023-02-02T05:48:20.173Z,94.37
2023-02-02T05:49:20.152Z,95.20
2023-02-02T05:50:20.145Z,94.89
2023-02-02T05:51:20.139Z,95.31
2023-02-02T05:52:20.119Z,95.20
2023-02-02T05:53:20.114Z,95.51
2023-02-02T05:54:20.101Z,95.31
2023-02-02T05:55:20.131Z,95.41
2023-02-02T05:56:20.101Z,95.10
2023-02-02T05:57:20.088Z,95.00
2023-02-02T05:58:20.069Z,95.41
2023-02-02T05:59:20.062Z,95.93
2023-02-02T06:00:20.053Z,96.03
2023-02-02T06:01:20.045Z,96.34
2023-02-02T06:02:20.050Z,95.83
2023-02-02T06:03:20.095Z,96.14
2023-02-02T06:04:20.039Z,96.45
2023-02-02T06:05:20.014Z,96.14
2023-02-02T06:06:20.022Z,97.07
2023-02-02T06:07:20.013Z,97.17
2023-02-02T06:08:19.990Z,96.97
2023-02-02T06:09:19.974Z,96.34
2023-02-02T06:10:19.967Z,96.45
2023-02-02T06:11:19.964Z,96.66
2023-02-02T06:12:19.966Z,96.34
2023-02-02T06:13:19.975Z,97.02
2023-02-02T06:14:19.942Z,97.07
2023-02-02T06:15:19.920Z,96.66
2023-02-02T06:16:19.919Z,96.70
2023-02-02T06:17:19.918Z,96.66
2023-02-02T06:18:19.905Z,96.81
2023-02-02T06:19:19.914Z,96.86
2023-02-02T06:20:22.273Z,97.17
2023-02-02T06:21:20.876Z,96.91
2023-02-02T06:22:19.879Z,96.91
2023-02-02T06:23:19.879Z,97.17
2023-02-02T06:24:19.865Z,97.28
2023-02-02T06:25:19.866Z,96.86
2023-02-02T06:26:19.917Z,97.43
2023-02-02T06:27:19.831Z,97.53
2023-02-02T06:28:19.813Z,98.16
2023-02-02T06:29:19.815Z,98.36
2023-02-02T06:30:19.810Z,97.85
2023-02-02T06:31:19.860Z,97.95
2023-02-02T06:32:19.789Z,97.95
2023-02-02T06:33:19.770Z,98.16
2023-02-02T06:34:19.802Z,98.26
2023-02-02T06:35:19.783Z,97.95
2023-02-02T06:36:19.747Z,97.74
2023-02-02T06:37:19.748Z,98.16
2023-02-02T06:38:19.726Z,97.95
2023-02-02T06:39:19.712Z,97.49
2023-02-02T06:40:19.712Z,98.11
2023-02-02T06:41:19.700Z,97.49
2023-02-02T06:42:21.926Z,98.52
2023-02-02T06:43:20.734Z,97.69
2023-02-02T06:44:19.672Z,97.49
2023-02-02T06:45:19.667Z,98.21
2023-02-02T06:46:19.695Z,98.11
2023-02-02T06:47:19.673Z,97.86
2023-02-02T06:48:19.654Z,97.28
2023-02-02T06:49:19.640Z,96.86
2023-02-02T06:50:19.629Z,97.28
2023-02-02T06:51:19.616Z,97.34
2023-02-02T06:52:19.612Z,96.86
2023-02-02T06:53:19.609Z,96.86
2023-02-02T06:54:19.594Z,96.45
2023-02-02T06:55:19.579Z,96.14
2023-02-02T06:56:19.573Z,96.55
2023-02-02T06:57:19.579Z,96.24
2023-02-02T06:58:19.551Z,96.45
2023-02-02T06:59:19.548Z,96.24
2023-02-02T07:00:20.655Z,96.24
2023-02-02T07:01:20.550Z,96.55
2023-02-02T07:02:19.605Z,96.14
2023-02-02T07:03:19.521Z,95.72
2023-02-02T07:04:19.514Z,96.14
2023-02-02T07:05:19.505Z,95.72
2023-02-02T07:06:19.502Z,96.03
2023-02-02T07:07:19.494Z,96.55
2023-02-02T07:08:19.477Z,96.34
2023-02-02T07:09:19.495Z,96.55
2023-02-02T07:11:13.742Z,96.34
2023-02-02T07:11:20.450Z,96.55
2023-02-02T07:12:19.462Z,96.70
2023-02-02T07:13:19.429Z,97.02
2023-02-02T07:14:19.437Z,97.12
2023-02-02T07:15:19.422Z,97.02
2023-02-02T07:16:19.523Z,96.81
2023-02-02T07:17:19.407Z,97.02
2023-02-02T07:18:19.389Z,97.22
2023-02-02T07:19:19.385Z,96.81
2023-02-02T07:20:19.406Z,96.29
2023-02-02T07:21:19.395Z,96.44
2023-02-02T07:22:19.365Z,96.85
2023-02-02T07:23:19.371Z,97.12
2023-02-02T07:24:19.347Z,96.29
2023-02-02T07:25:19.329Z,97.06
2023-02-02T07:26:19.420Z,96.08
2023-02-02T07:27:20.354Z,96.60
2023-02-02T07:28:19.302Z,96.50
2023-02-02T07:29:19.295Z,95.67
2023-02-02T07:30:19.382Z,96.12
2023-02-02T07:31:19.442Z,95.61
2023-02-02T07:32:19.292Z,95.19
2023-02-02T07:33:19.269Z,95.40
2023-02-02T07:34:19.255Z,95.50
2023-02-02T07:35:19.246Z,95.81
2023-02-02T07:36:19.239Z,94.98
2023-02-02T07:37:19.252Z,95.50
2023-02-02T07:38:19.216Z,95.61
2023-02-02T07:39:19.207Z,95.61
2023-02-02T07:40:19.197Z,95.50
2023-02-02T07:41:19.189Z,94.88
2023-02-02T07:42:19.189Z,94.78
2023-02-02T07:43:19.180Z,94.98
2023-02-02T07:44:19.177Z,95.19
2023-02-02T07:45:27.534Z,94.92
2023-02-02T07:46:20.278Z,94.40
2023-02-02T07:47:19.144Z,94.36
2023-02-02T07:48:19.123Z,94.05
2023-02-02T07:49:19.120Z,94.30
2023-02-02T07:50:19.108Z,94.20
2023-02-02T07:51:19.100Z,94.40
2023-02-02T07:52:19.103Z,94.71
2023-02-02T07:53:19.086Z,94.92
2023-02-02T07:54:19.080Z,95.17
2023-02-02T07:55:19.074Z,95.69
2023-02-02T07:56:19.061Z,95.53
2023-02-02T07:57:19.058Z,96.04
2023-02-02T07:58:19.042Z,96.21
2023-02-02T07:59:19.033Z,95.94
2023-02-02T08:00:19.023Z,96.72
2023-02-02T08:01:19.017Z,96.92
2023-02-02T08:02:19.023Z,96.82
2023-02-02T08:03:19.008Z,97.03
2023-02-02T08:04:18.992Z,97.55
2023-02-02T08:05:18.988Z,96.86
2023-02-02T08:06:18.997Z,98.05
2023-02-02T08:07:18.976Z,98.47
2023-02-02T08:08:18.959Z,98.36
2023-02-02T08:09:18.956Z,98.68
2023-02-02T08:10:18.948Z,98.57
2023-02-02T08:11:18.939Z,99.10
2023-02-02T08:12:18.949Z,98.78
2023-02-02T08:13:18.922Z,98.99
2023-02-02T08:14:18.909Z,98.68
2023-02-02T08:15:18.896Z,98.57
2023-02-02T08:16:18.921Z,98.36
2023-02-02T08:17:18.892Z,99.62
2023-02-02T08:18:18.879Z,99.14
2023-02-02T08:19:18.860Z,98.94
2023-02-02T08:20:18.855Z,99.93
2023-02-02T08:21:18.867Z,99.88
2023-02-02T08:22:20.331Z,99.77
2023-02-02T08:23:19.828Z,98.43
2023-02-02T08:24:18.831Z,97.95
2023-02-02T08:25:18.837Z,98.16
2023-02-02T08:26:18.849Z,98.47
2023-02-02T08:27:18.795Z,98.57
2023-02-02T08:28:18.783Z,97.85
2023-02-02T08:29:18.776Z,98.68
2023-02-02T08:30:18.875Z,98.57
2023-02-02T08:31:18.905Z,98.63
2023-02-02T08:32:18.766Z,98.94
2023-02-02T08:33:18.741Z,98.94
2023-02-02T08:34:18.740Z,98.59
2023-02-02T08:35:18.727Z,98.43
2023-02-02T08:36:18.719Z,98.69
2023-02-02T08:37:18.731Z,98.69
2023-02-02T08:38:18.701Z,97.70
2023-02-02T08:39:18.688Z,98.69
2023-02-02T08:40:18.699Z,98.38
2023-02-02T08:41:18.675Z,97.03
2023-02-02T08:42:18.685Z,97.40
2023-02-02T08:43:18.664Z,97.09
2023-02-02T08:44:18.646Z,96.78
2023-02-02T08:46:13.104Z,97.50
2023-02-02T08:46:20.224Z,96.78
2023-02-02T08:47:18.627Z,96.00
2023-02-02T08:48:18.648Z,96.11
2023-02-02T08:49:18.635Z,95.17
2023-02-02T08:50:18.599Z,95.53
2023-02-02T08:51:18.594Z,95.17
2023-02-02T08:52:18.617Z,95.69
2023-02-02T08:53:18.591Z,94.86
2023-02-02T08:54:18.570Z,95.01
2023-02-02T08:55:18.558Z,94.45
2023-02-02T08:56:18.551Z,94.24
2023-02-02T08:57:18.543Z,94.34
2023-02-02T08:58:18.546Z,94.49
2023-02-02T08:59:18.525Z,94.03
2023-02-02T09:00:18.515Z,94.03
2023-02-02T09:01:18.577Z,93.30
2023-02-02T09:02:18.621Z,93.72
2023-02-02T09:03:18.498Z,93.82
2023-02-02T09:04:18.477Z,94.03
2023-02-02T09:05:18.471Z,93.51
2023-02-02T09:06:18.456Z,93.82
2023-02-02T09:07:20.991Z,93.20
2023-02-02T09:08:18.471Z,93.20
2023-02-02T09:09:18.442Z,92.99
2023-02-02T09:10:18.421Z,93.03
2023-02-02T09:11:18.424Z,92.88
2023-02-02T09:12:18.415Z,92.88
2023-02-02T09:13:18.425Z,92.78
2023-02-02T09:14:18.412Z,92.57
2023-02-02T09:15:18.406Z,92.93
2023-02-02T09:16:18.485Z,92.61
2023-02-02T09:17:18.373Z,92.20
2023-02-02T09:18:18.373Z,92.47
2023-02-02T09:19:18.358Z,92.51
2023-02-02T09:20:20.484Z,92.82
2023-02-02T09:21:18.337Z,92.41
2023-02-02T09:22:18.336Z,92.93
2023-02-02T09:23:18.330Z,92.82
2023-02-02T09:24:18.322Z,92.41
2023-02-02T09:25:18.301Z,92.30
2023-02-02T09:26:18.375Z,92.16
2023-02-02T09:27:18.281Z,92.51
2023-02-02T09:28:18.295Z,92.26
2023-02-02T09:29:18.296Z,92.26
2023-02-02T09:30:18.272Z,92.26
2023-02-02T09:31:18.304Z,92.41
2023-02-02T09:32:18.250Z,92.30
2023-02-02T09:33:18.260Z,92.05
2023-02-02T09:34:18.227Z,92.47
2023-02-02T09:35:18.244Z,92.36
2023-02-02T09:36:18.238Z,92.36
2023-02-02T09:37:18.220Z,92.26
2023-02-02T09:38:18.210Z,92.36
2023-02-02T09:39:18.188Z,92.30
2023-02-02T09:40:18.184Z,92.20
2023-02-02T09:41:18.172Z,92.30
2023-02-02T09:42:18.171Z,92.20
2023-02-02T09:43:18.168Z,92.20
2023-02-02T09:44:18.150Z,92.41
2023-02-02T09:45:18.139Z,92.41
2023-02-02T09:46:18.185Z,92.51
2023-02-02T09:47:18.187Z,92.82
2023-02-02T09:48:18.124Z,92.93
2023-02-02T09:49:18.106Z,92.51
2023-02-02T09:50:18.092Z,92.51
2023-02-02T09:51:18.098Z,92.72
2023-02-02T09:52:18.070Z,92.41
2023-02-02T09:53:18.075Z,92.82
2023-02-02T09:54:18.083Z,92.41
2023-02-02T09:55:18.053Z,92.41
2023-02-02T09:56:18.039Z,92.41
2023-02-02T09:57:18.031Z,92.30
2023-02-02T09:58:18.042Z,92.20
2023-02-02T09:59:20.939Z,92.41
2023-02-02T10:00:19.096Z,93.18
2023-02-02T10:01:18.019Z,92.93
2023-02-02T10:02:17.987Z,92.61
2023-02-02T10:03:17.997Z,93.03
2023-02-02T10:04:18.006Z,93.03
2023-02-02T10:05:17.968Z,93.24
2023-02-02T10:06:17.967Z,93.87
2023-02-02T10:07:17.951Z,93.76
2023-02-02T10:08:29.017Z,93.72
2023-02-02T10:09:19.925Z,93.41
2023-02-02T10:10:18.014Z,92.88
2023-02-02T10:11:17.933Z,92.88
2023-02-02T10:12:17.899Z,92.61
2023-02-02T10:13:17.899Z,92.88
2023-02-02T10:14:17.882Z,92.51
2023-02-02T10:15:17.895Z,92.51
2023-02-02T10:16:17.955Z,92.78
2023-02-02T10:17:17.870Z,92.41
2023-02-02T10:18:17.858Z,92.30
2023-02-02T10:19:17.837Z,92.41
2023-02-02T10:20:17.843Z,92.51
2023-02-02T10:21:17.820Z,91.78
2023-02-02T10:22:17.806Z,92.20
2023-02-02T10:23:17.816Z,92.61
2023-02-02T10:24:17.791Z,92.20
2023-02-02T10:25:17.789Z,92.41
2023-02-02T10:26:17.808Z,92.51
2023-02-02T10:27:17.766Z,92.82
2023-02-02T10:28:17.767Z,92.93
2023-02-02T10:29:17.745Z,93.24
2023-02-02T10:30:17.730Z,92.76
2023-02-02T10:31:17.863Z,93.03
2023-02-02T10:32:17.717Z,92.55
2023-02-02T10:33:17.723Z,92.86
2023-02-02T10:34:17.705Z,92.55
2023-02-02T10:35:17.700Z,92.66
2023-02-02T10:36:17.694Z,93.60
2023-02-02T10:37:17.672Z,94.12
2023-02-02T10:38:17.686Z,93.91
2023-02-02T10:39:17.657Z,93.60
2023-02-02T10:40:17.787Z,93.70
2023-02-02T10:41:17.646Z,93.80
2023-02-02T10:42:17.667Z,93.80
2023-02-02T10:43:17.654Z,93.70
2023-02-02T10:44:17.622Z,93.70
2023-02-02T10:45:17.634Z,93.70
2023-02-02T10:46:17.683Z,94.12
2023-02-02T10:47:17.603Z,93.66
2023-02-02T10:48:17.621Z,93.60
2023-02-02T10:49:17.577Z,93.60
2023-02-02T10:50:17.713Z,94.07
2023-02-02T10:51:17.550Z,94.22
2023-02-02T10:52:17.599Z,94.18
2023-02-02T10:53:17.552Z,94.28
2023-02-02T10:54:17.528Z,94.07
2023-02-02T10:55:17.532Z,94.07
2023-02-02T10:56:17.520Z,93.97
2023-02-02T10:57:17.530Z,94.07
2023-02-02T10:58:17.497Z,93.87
2023-02-02T10:59:18.540Z,92.93
2023-02-02T11:00:17.524Z,93.18
2023-02-02T11:01:17.525Z,93.35
2023-02-02T11:02:21.012Z,93.14
2023-02-02T11:03:18.456Z,93.29
2023-02-02T11:04:18.451Z,93.87
2023-02-02T11:05:17.438Z,93.76
2023-02-02T11:06:17.432Z,94.43
2023-02-02T11:07:17.423Z,93.45
2023-02-02T11:08:17.655Z,93.55
2023-02-02T11:09:17.417Z,93.76
2023-02-02T11:10:17.389Z,93.55
2023-02-02T11:11:17.386Z,93.35
2023-02-02T11:12:17.378Z,93.76
2023-02-02T11:13:17.397Z,94.07
2023-02-02T11:14:17.354Z,94.07
2023-02-02T11:15:17.421Z,93.87
2023-02-02T11:16:17.397Z,93.66
2023-02-02T11:17:17.336Z,93.55
2023-02-02T11:18:17.334Z,94.28
2023-02-02T11:19:17.338Z,94.18
2023-02-02T11:20:17.303Z,93.76
2023-02-02T11:21:17.305Z,93.66
2023-02-02T11:22:17.287Z,92.93
2023-02-02T11:23:17.293Z,92.41
2023-02-02T11:24:17.267Z,92.72
2023-02-02T11:25:17.277Z,93.24
2023-02-02T11:26:17.302Z,92.72
2023-02-02T11:27:17.276Z,93.03
2023-02-02T11:28:17.240Z,92.82
2023-02-02T11:29:17.225Z,92.72
2023-02-02T11:30:17.213Z,93.14
2023-02-02T11:31:17.310Z,92.82
2023-02-02T11:32:17.249Z,93.03
2023-02-02T11:33:17.229Z,93.07
2023-02-02T11:34:20.168Z,92.66
2023-02-02T11:35:17.166Z,93.60
2023-02-02T11:36:17.161Z,94.28
2023-02-02T11:37:17.155Z,94.07
2023-02-02T11:38:17.145Z,93.49
2023-02-02T11:39:17.148Z,93.80
2023-02-02T11:40:17.133Z,94.22
2023-02-02T11:41:17.130Z,94.22
2023-02-02T11:42:17.132Z,93.97
2023-02-02T11:43:17.104Z,93.70
2023-02-02T11:44:18.108Z,93.18
2023-02-02T11:45:17.096Z,94.12
2023-02-02T11:46:17.149Z,93.70
2023-02-02T11:47:17.069Z,94.12
2023-02-02T11:48:17.065Z,94.01
2023-02-02T11:49:17.068Z,94.64
2023-02-02T11:50:17.047Z,94.74
2023-02-02T11:51:17.052Z,94.64
2023-02-02T11:52:17.034Z,94.64
2023-02-02T11:53:17.021Z,94.64
2023-02-02T11:54:17.035Z,94.59
2023-02-02T11:55:17.005Z,94.49
2023-02-02T11:56:17.000Z,94.38
2023-02-02T11:57:16.980Z,94.59
2023-02-02T11:58:16.977Z,94.64
2023-02-02T11:59:16.980Z,93.76
2023-02-02T12:00:16.958Z,93.87
2023-02-02T12:01:16.949Z,93.97
2023-02-02T12:02:16.957Z,93.87
2023-02-02T12:03:17.047Z,94.07
2023-02-02T12:04:17.039Z,93.66
2023-02-02T12:05:16.921Z,93.45
2023-02-02T12:06:16.913Z,93.93
2023-02-02T12:07:16.958Z,93.87
2023-02-02T12:08:16.890Z,94.18
2023-02-02T12:09:16.894Z,93.72
2023-02-02T12:10:16.878Z,93.55
2023-02-02T12:11:16.917Z,92.99
2023-02-02T12:12:16.865Z,92.82
2023-02-02T12:13:16.902Z,93.24
2023-02-02T12:14:16.850Z,92.88
2023-02-02T12:15:16.830Z,93.14
2023-02-02T12:16:16.904Z,92.61
2023-02-02T12:17:16.813Z,92.78
2023-02-02T12:18:16.809Z,92.99
2023-02-02T12:19:16.811Z,92.88
2023-02-02T12:20:16.817Z,92.68
2023-02-02T12:21:16.787Z,92.88
2023-02-02T12:22:16.778Z,92.68
2023-02-02T12:23:16.760Z,92.88
2023-02-02T12:24:16.768Z,92.99
2023-02-02T12:25:16.749Z,92.88
2023-02-02T12:26:16.748Z,92.78
2023-02-02T12:27:16.746Z,93.10
2023-02-02T12:28:16.717Z,92.93
2023-02-02T12:29:16.747Z,92.68
2023-02-02T12:30:16.704Z,92.88
2023-02-02T12:31:16.813Z,92.47
2023-02-02T12:32:16.683Z,92.51
2023-02-02T12:33:16.675Z,92.88
2023-02-02T12:34:16.788Z,92.61
2023-02-02T12:35:16.658Z,92.41
2023-02-02T12:36:16.749Z,92.10
2023-02-02T12:37:16.637Z,92.47
2023-02-02T12:38:16.633Z,92.51
2023-02-02T12:39:16.635Z,92.41
2023-02-02T12:40:16.618Z,92.57
2023-02-02T12:41:16.604Z,92.51
2023-02-02T12:42:16.629Z,92.30
2023-02-02T12:43:16.636Z,92.20
2023-02-02T12:44:16.597Z,92.51
2023-02-02T12:45:16.635Z,92.30
2023-02-02T12:46:16.760Z,92.26
2023-02-02T12:47:16.560Z,92.20
2023-02-02T12:48:16.559Z,92.51
2023-02-02T12:49:16.552Z,92.20
2023-02-02T12:50:16.538Z,92.26
2023-02-02T12:51:16.530Z,92.16
2023-02-02T12:52:16.569Z,92.41